Time;durP1;ratioP1;P1;durP2;ratioP2;P2;SDS_P1;SDS_P2;PMS_P1;PMS_P2;Temp;Humidity;BMP_temperature;BMP_pressure;BME280_temperature;BME280_humidity;BME280_pressure;Samples;Min_cycle;Max_cycle;Signal;HPM_P1;HPM_P2
2023/10/28 00:00:46;;;;;;;13.98;7.93;;;;;;;16.61;73.06;98623.03;5070449;28;20032;-79
2023/10/28 00:03:12;;;;;;;21.08;7.20;;;;;;;16.66;72.60;98615.66;5071120;28;20033;-80
2023/10/28 00:05:38;;;;;;;12.52;6.78;;;;;;;16.62;72.51;98628.28;5073975;28;20046;-81
2023/10/28 00:08:03;;;;;;;13.30;6.55;;;;;;;16.68;72.33;98603.09;5069422;28;20115;-79
2023/10/28 00:10:33;;;;;;;12.57;5.82;;;;;;;16.73;72.10;98624.13;5070148;28;20028;-79
2023/10/28 00:12:59;;;;;;;14.57;6.13;;;;;;;16.66;72.08;98636.94;5071336;28;20021;-79
2023/10/28 00:15:25;;;;;;;11.85;7.28;;;;;;;16.53;71.99;98626.16;5069990;28;20032;-79
2023/10/28 00:17:51;;;;;;;11.75;7.38;;;;;;;16.72;71.52;98651.72;5070462;28;20066;-78
2023/10/28 00:20:17;;;;;;;13.85;7.00;;;;;;;16.77;70.83;98646.97;5069988;28;20121;-83
2023/10/28 00:22:47;;;;;;;14.20;7.47;;;;;;;16.68;70.83;98632.38;5071439;28;20025;-81
2023/10/28 00:25:14;;;;;;;13.60;7.45;;;;;;;16.50;70.98;98620.13;5070123;28;20028;-79
2023/10/28 00:27:40;;;;;;;14.20;7.72;;;;;;;16.57;71.15;98643.63;5070821;28;20388;-78
2023/10/28 00:30:07;;;;;;;17.63;8.75;;;;;;;16.62;70.48;98619.41;5070551;28;20035;-78
2023/10/28 00:32:33;;;;;;;22.00;7.75;;;;;;;16.72;70.45;98638.41;5069493;28;20035;-79
2023/10/28 00:34:59;;;;;;;16.98;9.02;;;;;;;16.35;71.56;98633.34;5072085;28;20078;-77
2023/10/28 00:37:25;;;;;;;27.95;10.02;;;;;;;16.45;71.40;98642.53;5068695;28;20029;-78
2023/10/28 00:39:50;;;;;;;24.17;10.85;;;;;;;16.41;71.65;98640.13;5069700;28;20040;-80
2023/10/28 00:42:17;;;;;;;20.52;8.10;;;;;;;16.25;71.85;98635.66;5069994;28;20075;-78
2023/10/28 00:44:43;;;;;;;33.33;13.27;;;;;;;16.40;71.82;98646.41;5078347;28;20068;-79
2023/10/28 00:47:09;;;;;;;32.40;11.30;;;;;;;16.09;72.19;98614.34;5090128;28;20078;-79
2023/10/28 00:49:36;;;;;;;18.52;9.07;;;;;;;16.07;72.64;98650.81;5088746;28;20413;-78
2023/10/28 00:52:02;;;;;;;22.23;8.57;;;;;;;16.16;72.96;98675.19;5089381;28;20425;-78
2023/10/28 00:54:28;;;;;;;17.23;8.43;;;;;;;15.91;73.04;98642.81;5088555;28;20470;-78
2023/10/28 00:56:55;;;;;;;14.82;7.35;;;;;;;15.91;72.90;98647.25;5090235;28;20050;-78
2023/10/28 00:59:20;;;;;;;19.35;7.72;;;;;;;16.04;72.67;98640.34;5085349;28;20112;-78
2023/10/28 01:01:46;;;;;;;19.80;8.45;;;;;;;16.01;73.47;98664.44;5069558;28;20546;-78
2023/10/28 01:04:12;;;;;;;14.07;7.55;;;;;;;16.01;73.02;98635.19;5069296;28;20040;-78
2023/10/28 01:06:38;;;;;;;19.10;6.95;;;;;;;16.16;73.53;98677.84;5070302;28;20035;-78
2023/10/28 01:09:04;;;;;;;13.90;7.45;;;;;;;16.12;73.39;98647.91;5069262;28;20056;-78
2023/10/28 01:11:30;;;;;;;19.05;7.95;;;;;;;16.18;73.63;98660.88;5070238;28;20032;-78
2023/10/28 01:13:56;;;;;;;13.57;6.68;;;;;;;16.03;74.03;98635.97;5073184;28;20103;-78
2023/10/28 01:16:22;;;;;;;11.13;6.80;;;;;;;16.04;73.42;98604.91;5074148;28;20035;-78
2023/10/28 01:18:56;;;;;;;12.88;6.55;;;;;;;16.18;73.39;98620.97;5073083;28;20029;-78
2023/10/28 01:21:22;;;;;;;22.45;7.75;;;;;;;15.99;73.41;98602.50;5073206;28;20447;-78
2023/10/28 01:23:47;;;;;;;33.22;7.55;;;;;;;16.18;72.97;98638.75;5073818;28;20112;-78
2023/10/28 01:26:13;;;;;;;14.65;6.32;;;;;;;15.99;72.90;98628.22;5073274;28;20085;-79
2023/10/28 01:28:38;;;;;;;13.27;6.75;;;;;;;15.90;73.82;98661.50;5074119;28;20059;-79
2023/10/28 01:31:04;;;;;;;16.23;5.07;;;;;;;15.70;73.36;98614.69;5075240;28;20571;-78
2023/10/28 01:33:29;;;;;;;18.05;5.78;;;;;;;15.83;73.41;98631.72;5093302;28;20055;-79
2023/10/28 01:35:55;;;;;;;13.57;5.95;;;;;;;15.91;73.20;98652.56;5083576;28;20454;-78
2023/10/28 01:38:23;;;;;;;10.10;6.40;;;;;;;15.81;73.10;98633.59;5073957;28;20082;-79
2023/10/28 01:40:49;;;;;;;10.60;6.15;;;;;;;15.87;73.59;98659.03;5072631;28;20032;-79
2023/10/28 01:43:16;;;;;;;8.63;5.45;;;;;;;15.70;73.40;98659.88;5073199;28;20402;-79
2023/10/28 01:45:41;;;;;;;15.65;7.43;;;;;;;15.78;73.50;98678.13;5072832;28;20024;-78
2023/10/28 01:48:07;;;;;;;14.48;6.65;;;;;;;15.93;72.73;98680.81;5074016;28;20480;-78
2023/10/28 01:50:32;;;;;;;14.27;5.72;;;;;;;15.87;72.80;98675.81;5072465;28;20035;-79
2023/10/28 01:52:58;;;;;;;10.50;6.43;;;;;;;15.86;72.57;98659.94;5071770;28;20089;-79
2023/10/28 01:55:24;;;;;;;19.05;6.68;;;;;;;15.95;72.67;98682.53;5072403;28;20056;-78
2023/10/28 01:57:49;;;;;;;16.35;6.60;;;;;;;15.98;71.80;98664.63;5072535;28;20192;-78
2023/10/28 02:00:16;;;;;;;11.65;5.63;;;;;;;16.01;72.53;98692.84;5073502;28;20410;-78
2023/10/28 02:02:45;;;;;;;18.35;6.68;;;;;;;16.04;73.01;98712.16;5072140;28;20040;-78
2023/10/28 02:05:11;;;;;;;10.82;5.30;;;;;;;16.07;73.15;98721.78;5091207;28;20474;-79
2023/10/28 02:07:37;;;;;;;17.95;6.70;;;;;;;15.85;73.51;98696.31;5092256;28;20165;-78
2023/10/28 02:10:03;;;;;;;13.65;6.60;;;;;;;16.09;72.53;98714.59;5090455;28;20110;-78
2023/10/28 02:12:28;;;;;;;9.10;5.20;;;;;;;15.87;72.35;98677.63;5092307;28;20036;-78
2023/10/28 02:14:54;;;;;;;15.15;6.38;;;;;;;15.75;72.65;98684.41;5092195;28;20039;-78
2023/10/28 02:17:19;;;;;;;14.52;6.00;;;;;;;15.77;72.72;98685.25;5092004;28;20032;-80
2023/10/28 02:19:44;;;;;;;13.55;6.18;;;;;;;15.76;72.65;98680.81;5090983;28;20130;-78
2023/10/28 02:22:10;;;;;;;11.23;6.35;;;;;;;15.73;72.87;98684.50;5091558;28;20042;-80
2023/10/28 02:24:37;;;;;;;9.55;5.13;;;;;;;15.93;73.12;98723.38;5091015;28;20419;-78
2023/10/28 02:27:02;;;;;;;11.25;4.05;;;;;;;15.86;73.18;98721.13;5092089;28;20028;-78
2023/10/28 02:29:29;;;;;;;8.95;5.13;;;;;;;15.64;73.06;98677.00;5092104;28;20039;-78
2023/10/28 02:31:54;;;;;;;17.08;7.18;;;;;;;15.87;72.68;98722.84;5090347;28;20097;-78
2023/10/28 02:34:20;;;;;;;11.18;6.38;;;;;;;16.00;72.41;98713.25;5090298;28;20040;-78
2023/10/28 02:36:46;;;;;;;15.90;5.88;;;;;;;15.85;72.76;98724.69;5073190;28;20467;-78
2023/10/28 02:39:12;;;;;;;17.65;6.35;;;;;;;15.71;72.64;98697.00;5071867;28;20471;-78
2023/10/28 02:41:38;;;;;;;16.38;6.85;;;;;;;15.48;73.65;98684.91;5072936;28;20036;-78
2023/10/28 02:44:04;;;;;;;13.75;5.57;;;;;;;15.60;73.84;98709.13;5072036;28;20104;-78
2023/10/28 02:46:30;;;;;;;12.45;5.47;;;;;;;15.70;72.96;98718.38;5072034;28;20032;-78
2023/10/28 02:48:56;;;;;;;12.43;7.07;;;;;;;15.47;73.85;98691.16;5071434;28;20054;-78
2023/10/28 02:51:21;;;;;;;14.77;5.90;;;;;;;15.30;74.64;98689.34;5071475;28;20021;-79
2023/10/28 02:53:47;;;;;;;11.23;6.32;;;;;;;15.39;74.10;98690.69;5072598;28;20025;-78
2023/10/28 02:56:12;;;;;;;9.75;5.20;;;;;;;15.39;73.99;98674.75;5071339;28;20028;-78
2023/10/28 02:58:39;;;;;;;;;;;;;;;15.58;73.98;98715.41;5071831;28;20048;-78
2023/10/28 03:01:12;;;;;;;8.18;4.60;;;;;;;15.56;73.69;98685.38;5071338;28;20007;-78
2023/10/28 03:03:39;;;;;;;13.93;6.15;;;;;;;15.66;73.35;98706.16;5071903;28;20040;-79
2023/10/28 03:06:06;;;;;;;13.90;5.25;;;;;;;15.80;73.25;98713.44;5070828;28;20028;-79
2023/10/28 03:08:31;;;;;;;19.98;6.07;;;;;;;15.63;73.34;98712.50;5089743;28;20119;-79
2023/10/28 03:10:57;;;;;;;13.85;6.05;;;;;;;15.61;73.82;98701.06;5070688;28;20129;-83
2023/10/28 03:13:23;;;;;;;9.07;5.30;;;;;;;15.66;74.10;98722.09;5077844;28;20055;-79
2023/10/28 03:15:49;;;;;;;18.90;6.05;;;;;;;15.69;73.89;98706.00;5091401;28;20032;-79
2023/10/28 03:18:14;;;;;;;17.08;5.95;;;;;;;15.58;73.63;98694.16;5089220;28;20497;-79
2023/10/28 03:20:40;;;;;;;14.45;5.63;;;;;;;15.47;74.66;98691.16;5071529;28;20056;-78
2023/10/28 03:23:05;;;;;;;9.88;5.38;;;;;;;15.57;74.45;98679.13;5091222;28;20024;-79
2023/10/28 03:25:32;;;;;;;16.10;5.00;;;;;;;15.69;73.80;98700.69;5089411;28;20036;-79
2023/10/28 03:28:00;;;;;;;12.10;5.63;;;;;;;15.56;74.25;98692.50;5072311;28;20032;-79
2023/10/28 03:30:26;;;;;;;19.30;5.60;;;;;;;15.35;74.12;98683.81;5074709;28;20384;-79
2023/10/28 03:32:51;;;;;;;26.73;5.15;;;;;;;15.41;74.87;98718.03;5070196;28;20103;-79
2023/10/28 03:35:17;;;;;;;13.35;6.88;;;;;;;14.87;73.64;98723.34;5071672;28;20081;-79
2023/10/28 03:37:44;;;;;;;9.48;6.05;;;;;;;14.60;75.59;98726.38;5070394;28;20032;-79
2023/10/28 03:40:10;;;;;;;13.40;6.43;;;;;;;14.40;76.51;98707.84;5069257;28;20047;-78
2023/10/28 03:42:36;;;;;;;19.58;6.50;;;;;;;14.70;75.90;98739.22;5070301;28;20039;-78
2023/10/28 03:45:07;;;;;;;17.00;5.63;;;;;;;14.64;75.80;98733.28;5071601;28;20032;-78
2023/10/28 03:47:33;;;;;;;11.68;5.63;;;;;;;14.92;75.62;98745.25;5070194;28;20499;-78
2023/10/28 03:49:59;;;;;;;20.15;7.53;;;;;;;14.86;75.15;98759.66;5076325;28;20036;-78
2023/10/28 03:52:25;;;;;;;12.70;6.18;;;;;;;14.63;76.09;98723.56;5052544;28;20036;-78
2023/10/28 03:54:50;;;;;;;13.50;7.07;;;;;;;15.02;75.48;98754.47;5070234;28;20089;-77
2023/10/28 03:57:16;;;;;;;12.13;7.05;;;;;;;14.82;75.32;98736.81;5070306;28;20052;-79
2023/10/28 03:59:41;;;;;;;11.07;6.72;;;;;;;14.48;75.85;98690.63;5088743;28;20059;-78
2023/10/28 04:02:07;;;;;;;;;;;;;;;14.98;74.69;98773.28;5089483;28;20032;-78
2023/10/28 04:04:32;;;;;;;16.70;5.13;;;;;;;14.78;75.00;98745.00;5090258;28;19922;-79
2023/10/28 04:06:58;;;;;;;18.20;8.30;;;;;;;14.55;76.36;98748.72;5084996;28;20051;-77
2023/10/28 04:09:23;;;;;;;16.70;8.30;;;;;;;14.45;76.11;98727.91;5070277;28;20090;-77
2023/10/28 04:11:49;;;;;;;26.88;7.47;;;;;;;14.69;75.68;98746.31;5070860;28;20147;-78
2023/10/28 04:14:14;;;;;;;12.90;6.88;;;;;;;14.81;74.98;98759.03;5069708;28;20032;-78
2023/10/28 04:16:39;;;;;;;;;;;;;;;14.81;75.27;98776.72;5070303;28;20479;-78
2023/10/28 04:19:05;;;;;;;16.55;5.80;;;;;;;14.67;76.71;98788.88;5070015;28;19916;-79
2023/10/28 04:21:31;;;;;;;16.63;7.70;;;;;;;14.72;75.62;98764.75;5069168;28;20044;-78
2023/10/28 04:23:57;;;;;;;17.25;7.78;;;;;;;14.72;76.11;98747.94;5070749;28;20060;-77
2023/10/28 04:26:22;;;;;;;14.60;7.55;;;;;;;14.95;75.94;98781.38;5069773;28;20537;-78
2023/10/28 04:28:48;;;;;;;11.30;6.60;;;;;;;14.86;75.78;98766.78;5069484;28;20056;-79
2023/10/28 04:31:15;;;;;;;15.23;7.57;;;;;;;14.94;75.42;98747.81;5070215;28;20475;-78
2023/10/28 04:33:40;;;;;;;17.10;7.20;;;;;;;14.83;76.04;98758.94;5070106;28;20025;-79
2023/10/28 04:36:09;;;;;;;20.23;7.40;;;;;;;14.91;76.12;98771.88;5068325;28;20048;-78
2023/10/28 04:38:40;;;;;;;17.77;7.32;;;;;;;14.92;76.38;98769.13;5081038;28;20457;-78
2023/10/28 04:41:08;;;;;;;22.23;7.40;;;;;;;15.12;76.21;98801.81;5081430;28;20040;-78
2023/10/28 04:43:33;;;;;;;14.73;8.70;;;;;;;14.98;76.59;98803.38;5070181;28;20032;-77
2023/10/28 04:45:59;;;;;;;21.27;9.70;;;;;;;14.91;76.55;98788.66;5077956;28;20036;-77
2023/10/28 04:48:27;;;;;;;;;;;;;;;15.03;75.95;98814.63;5078116;28;20439;-78
2023/10/28 04:50:52;;;;;;;18.65;11.88;;;;;;;14.72;75.33;98761.22;5073970;28;19943;-77
2023/10/28 04:53:18;;;;;;;14.55;8.50;;;;;;;14.53;74.73;98775.31;5076366;28;20478;-79
2023/10/28 04:55:44;;;;;;;11.68;7.88;;;;;;;14.25;75.17;98781.00;5074243;28;20406;-79
2023/10/28 04:58:10;;;;;;;12.35;5.93;;;;;;;14.44;74.73;98797.84;5072370;28;20053;-79
2023/10/28 05:00:36;;;;;;;17.20;7.47;;;;;;;14.35;74.91;98785.00;5073366;28;20032;-78
2023/10/28 05:03:02;;;;;;;13.15;6.55;;;;;;;14.25;75.00;98800.44;5073523;28;20028;-79
2023/10/28 05:05:28;;;;;;;14.52;7.93;;;;;;;14.47;75.76;98837.50;5074281;28;20070;-79
2023/10/28 05:07:53;;;;;;;14.18;8.27;;;;;;;14.41;76.03;98813.00;5073741;28;20126;-79
2023/10/28 05:10:19;;;;;;;;;;;;;;;14.60;75.66;98835.19;5094015;28;20025;-79
2023/10/28 05:12:44;;;;;;;12.18;6.28;;;;;;;14.48;76.48;98803.88;5093409;28;19908;-78
2023/10/28 05:15:10;;;;;;;20.40;7.03;;;;;;;14.61;75.96;98817.47;5093183;28;20046;-78
2023/10/28 05:17:36;;;;;;;17.10;8.70;;;;;;;14.74;76.65;98853.13;5092093;28;20063;-78
2023/10/28 05:20:06;;;;;;;15.40;7.78;;;;;;;14.90;76.33;98866.56;5091298;28;20036;-79
2023/10/28 05:22:35;;;;;;;17.27;7.47;;;;;;;15.04;76.73;98857.97;5093074;28;20032;-81
2023/10/28 05:25:04;;;;;;;20.33;8.77;;;;;;;14.87;76.93;98845.47;5079173;28;20127;-79
2023/10/28 05:27:30;;;;;;;13.85;7.82;;;;;;;14.81;77.29;98830.69;5086867;28;20142;-79
2023/10/28 05:29:56;;;;;;;18.48;9.32;;;;;;;14.94;77.21;98846.91;5074031;28;20122;-79
2023/10/28 05:32:21;;;;;;;22.92;7.82;;;;;;;15.14;76.14;98838.00;5071913;28;20483;-79
2023/10/28 05:34:47;;;;;;;12.25;6.65;;;;;;;15.24;76.68;98843.75;5073178;28;20048;-76
2023/10/28 05:37:12;;;;;;;11.85;6.43;;;;;;;15.65;75.83;98886.06;5071282;28;20082;-80
2023/10/28 05:39:40;;;;;;;23.60;8.20;;;;;;;15.63;76.98;98876.44;5081127;28;20032;-77
2023/10/28 05:42:07;;;;;;;18.15;7.30;;;;;;;15.68;76.23;98854.03;5069644;28;20032;-79
2023/10/28 05:44:32;;;;;;;12.48;7.93;;;;;;;16.04;75.82;98887.72;5070694;28;20526;-83
2023/10/28 05:46:59;;;;;;;22.55;8.60;;;;;;;16.11;75.67;98896.25;5069918;28;20059;-79
2023/10/28 05:49:25;;;;;;;18.25;8.52;;;;;;;16.40;74.47;98897.41;5070534;28;20024;-78
2023/10/28 05:51:50;;;;;;;23.05;8.10;;;;;;;16.17;73.94;98853.38;5056476;28;20024;-80
2023/10/28 05:54:16;;;;;;;20.75;7.65;;;;;;;16.63;72.79;98892.72;5070208;28;20115;-81
2023/10/28 05:56:41;;;;;;;12.50;8.25;;;;;;;16.86;72.75;98902.19;5070363;28;20407;-79
2023/10/28 05:59:08;;;;;;;17.70;9.32;;;;;;;16.82;71.98;98876.59;5071938;28;20487;-82
2023/10/28 06:01:34;;;;;;;17.98;7.28;;;;;;;17.08;71.23;98909.00;5070598;28;20040;-83
2023/10/28 06:04:01;;;;;;;20.02;9.32;;;;;;;17.26;71.10;98918.66;5067486;28;20063;-84
2023/10/28 06:06:27;;;;;;;20.08;7.82;;;;;;;17.24;69.59;98903.69;5067347;28;20058;-84
2023/10/28 06:08:54;;;;;;;25.70;8.98;;;;;;;17.30;68.99;98906.91;5069508;28;20095;-84
2023/10/28 06:11:19;;;;;;;24.00;8.65;;;;;;;17.52;68.86;98922.56;5068759;28;20037;-83
2023/10/28 06:13:45;;;;;;;15.95;7.80;;;;;;;17.62;68.00;98938.91;5068783;28;20020;-83
2023/10/28 06:16:11;;;;;;;15.55;8.77;;;;;;;17.80;67.81;98923.66;5068646;28;20020;-83
2023/10/28 06:18:40;;;;;;;20.20;7.95;;;;;;;17.88;67.73;98920.56;5070011;28;20063;-83
2023/10/28 06:21:06;;;;;;;17.25;8.70;;;;;;;17.95;67.66;98916.63;5074789;28;20055;-82
2023/10/28 06:23:31;;;;;;;19.98;8.50;;;;;;;18.15;67.18;98936.84;5074392;28;20529;-83
2023/10/28 06:25:57;;;;;;;9.70;6.28;;;;;;;18.25;66.01;98899.78;5065759;28;20040;-84
2023/10/28 06:28:22;;;;;;;11.52;6.30;;;;;;;18.36;65.17;98916.00;5069940;28;20055;-83
2023/10/28 06:30:49;;;;;;;18.58;7.82;;;;;;;18.58;65.22;98928.06;5070036;28;20032;-82
2023/10/28 06:33:14;;;;;;;15.55;7.15;;;;;;;18.73;64.52;98923.63;5070988;28;20024;-81
2023/10/28 06:35:40;;;;;;;14.90;6.95;;;;;;;19.00;64.88;98965.66;5070447;28;20047;-81
2023/10/28 06:38:06;;;;;;;12.63;6.95;;;;;;;19.28;63.37;98970.19;5070234;28;20043;-80
2023/10/28 06:40:32;;;;;;;14.63;7.55;;;;;;;19.19;62.90;98939.53;5069850;28;20600;-81
2023/10/28 06:42:58;;;;;;;16.40;8.15;;;;;;;19.35;61.90;98920.69;5071165;28;20111;-83
2023/10/28 06:45:23;;;;;;;21.05;8.00;;;;;;;19.71;61.32;98983.50;5071245;28;20402;-81
2023/10/28 06:47:50;;;;;;;13.40;6.97;;;;;;;19.41;62.02;98952.38;5071498;28;20032;-82
2023/10/28 06:50:19;;;;;;;11.20;7.10;;;;;;;19.12;63.14;98932.84;5071302;28;20028;-80
2023/10/28 06:52:50;;;;;;;11.88;6.47;;;;;;;19.67;62.77;98976.63;5071677;28;20029;-82
2023/10/28 06:55:17;;;;;;;13.35;7.80;;;;;;;19.81;62.76;98981.13;5071126;28;20051;-83
2023/10/28 06:57:46;;;;;;;9.77;6.03;;;;;;;19.91;61.92;98979.59;5070730;28;20518;-83
2023/10/28 07:00:13;;;;;;;12.52;6.25;;;;;;;19.95;60.81;98980.22;5072012;28;20086;-86
2023/10/28 07:02:42;;;;;;;15.73;8.15;;;;;;;19.88;61.56;98978.91;5071692;28;20040;-81
2023/10/28 07:05:10;;;;;;;17.27;6.65;;;;;;;20.39;61.11;99000.56;5071301;28;20418;-82
2023/10/28 07:07:36;;;;;;;13.68;6.50;;;;;;;20.63;61.23;99003.38;5072923;28;20407;-81
2023/10/28 07:10:02;;;;;;;13.52;7.20;;;;;;;20.91;59.83;98994.38;5070976;28;20036;-82
2023/10/28 07:12:30;;;;;;;12.50;6.25;;;;;;;21.09;59.46;98978.81;5069795;28;20025;-81
2023/10/28 07:14:56;;;;;;;12.90;8.00;;;;;;;21.26;57.42;98996.41;5082001;28;20031;-82
2023/10/28 07:17:24;;;;;;;12.40;8.20;;;;;;;21.19;58.40;98979.03;5091220;28;20020;-82
2023/10/28 07:19:52;;;;;;;18.80;7.57;;;;;;;21.57;56.56;99007.69;5084566;28;20044;-82
2023/10/28 07:22:20;;;;;;;14.38;6.25;;;;;;;21.60;56.53;98996.72;5070559;28;20503;-81
2023/10/28 07:24:46;;;;;;;13.75;6.63;;;;;;;21.62;56.91;99005.50;5070137;28;20025;-82
2023/10/28 07:27:12;;;;;;;17.40;8.02;;;;;;;21.69;56.91;98992.53;5071192;28;20052;-81
2023/10/28 07:29:38;;;;;;;9.52;6.22;;;;;;;21.60;56.77;99002.09;5071521;28;20056;-84
2023/10/28 07:32:05;;;;;;;10.70;5.78;;;;;;;21.75;55.90;98969.75;5071078;28;20447;-86
2023/10/28 07:34:30;;;;;;;12.63;7.07;;;;;;;21.92;56.47;98974.75;5070507;28;20115;-84
2023/10/28 07:37:00;;;;;;;9.98;6.22;;;;;;;22.05;57.63;98993.50;5070701;28;20056;-84
2023/10/28 07:39:25;;;;;;;10.57;7.68;;;;;;;22.26;55.83;98990.19;5075538;28;20036;-84
2023/10/28 07:41:52;;;;;;;15.90;6.55;;;;;;;22.23;55.19;98977.84;5070803;28;20036;-84
2023/10/28 07:44:17;;;;;;;13.82;7.97;;;;;;;22.56;53.70;98983.53;5070863;28;20032;-83
2023/10/28 07:46:43;;;;;;;12.32;6.70;;;;;;;22.44;55.77;99004.09;5070049;28;20098;-84
2023/10/28 07:49:10;;;;;;;18.75;6.72;;;;;;;22.35;54.89;98973.41;5087697;28;20032;-84
2023/10/28 07:51:36;;;;;;;13.18;7.32;;;;;;;22.12;53.70;98961.66;5090866;28;20486;-85
2023/10/28 07:54:03;;;;;;;14.35;7.43;;;;;;;23.04;52.74;99024.59;5087478;28;20410;-85
2023/10/28 07:56:29;;;;;;;10.70;6.07;;;;;;;23.46;51.25;99024.06;5091187;28;20521;-85
2023/10/28 07:58:59;;;;;;;11.85;6.93;;;;;;;22.77;52.65;98954.13;5090174;28;20504;-87
2023/10/28 08:01:29;;;;;;;17.95;6.72;;;;;;;23.07;53.55;99001.97;5071347;28;20067;-84
2023/10/28 08:03:55;;;;;;;25.40;6.75;;;;;;;23.42;52.86;99036.91;5070853;28;20466;-82
2023/10/28 08:06:21;;;;;;;10.85;6.25;;;;;;;23.58;51.42;99003.41;5070944;28;20039;-82
2023/10/28 08:08:47;;;;;;;13.55;8.45;;;;;;;23.55;52.88;99003.66;5069685;28;20028;-85
2023/10/28 08:11:13;;;;;;;14.95;6.82;;;;;;;23.74;51.48;98993.13;5076162;28;20146;-85
2023/10/28 08:13:40;;;;;;;11.90;6.38;;;;;;;23.60;50.49;99015.78;5070212;28;20402;-83
2023/10/28 08:16:12;;;;;;;10.02;6.35;;;;;;;23.87;50.74;99030.72;5081745;28;20046;-81
2023/10/28 08:18:40;;;;;;;10.95;6.10;;;;;;;23.81;49.98;99014.16;5069917;28;20050;-82
2023/10/28 08:21:06;;;;;;;15.40;6.30;;;;;;;24.10;49.67;99030.69;5068120;28;20564;-81
2023/10/28 08:23:32;;;;;;;13.05;7.40;;;;;;;24.21;50.34;99013.66;5069545;28;20046;-82
2023/10/28 08:25:57;;;;;;;11.68;6.78;;;;;;;24.06;49.58;99013.91;5074423;28;20028;-83
2023/10/28 08:28:23;;;;;;;15.50;6.25;;;;;;;24.38;48.37;99015.78;5089187;28;20104;-82
2023/10/28 08:30:48;;;;;;;15.68;5.97;;;;;;;24.52;48.33;99027.25;5089159;28;20047;-81
2023/10/28 08:33:14;;;;;;;14.43;6.45;;;;;;;24.34;48.04;99025.09;5087600;28;20559;-80
2023/10/28 08:35:39;;;;;;;16.48;7.10;;;;;;;23.82;50.75;99010.47;5085311;28;20028;-81
2023/10/28 08:38:08;;;;;;;13.27;5.75;;;;;;;24.00;50.04;99038.66;5076945;28;20572;-80
2023/10/28 08:40:34;;;;;;;9.52;5.93;;;;;;;24.04;49.75;99025.81;5083601;28;20280;-81
2023/10/28 08:43:00;;;;;;;9.85;5.85;;;;;;;23.80;49.52;98999.84;5070519;28;20485;-82
2023/10/28 08:45:29;;;;;;;13.43;4.95;;;;;;;24.09;48.90;99027.13;5069416;28;20020;-82
2023/10/28 08:47:55;;;;;;;8.75;5.60;;;;;;;24.21;48.95;99011.78;5068265;28;20033;-80
2023/10/28 08:50:26;;;;;;;12.02;6.53;;;;;;;24.26;48.78;99025.72;5069336;28;20035;-81
2023/10/28 08:52:56;;;;;;;13.38;7.00;;;;;;;23.95;48.85;99032.78;5068747;28;20021;-81
2023/10/28 08:55:24;;;;;;;10.75;6.43;;;;;;;24.23;49.18;99039.47;5067903;28;20044;-81
2023/10/28 08:57:51;;;;;;;13.85;6.13;;;;;;;24.28;48.45;99028.31;5083527;28;20044;-80
2023/10/28 09:00:20;;;;;;;17.80;6.10;;;;;;;24.44;47.91;99036.00;5089520;28;20119;-82
2023/10/28 09:02:49;;;;;;;12.40;6.18;;;;;;;24.64;47.41;99020.88;5089254;28;20081;-83
2023/10/28 09:05:15;;;;;;;10.90;5.03;;;;;;;24.60;47.58;99019.41;5085632;28;20040;-84
2023/10/28 09:07:48;;;;;;;10.88;5.57;;;;;;;24.41;47.95;99020.06;5079095;28;20033;-82
2023/10/28 09:10:15;;;;;;;11.45;4.55;;;;;;;24.27;48.27;99024.75;5076367;28;20119;-85
2023/10/28 09:12:41;;;;;;;9.13;4.43;;;;;;;24.36;48.80;99016.88;5072325;28;20039;-84
2023/10/28 09:15:11;;;;;;;12.35;4.65;;;;;;;24.36;48.10;99019.59;5064635;28;20547;-85
2023/10/28 09:17:37;;;;;;;9.38;4.18;;;;;;;24.53;47.89;98985.81;5067844;28;20486;-83
2023/10/28 09:20:09;;;;;;;9.73;4.15;;;;;;;24.75;46.40;98979.53;5076382;28;20063;-82
2023/10/28 09:22:38;;;;;;;14.85;5.80;;;;;;;24.61;47.23;98941.09;5069051;28;20035;-81
2023/10/28 09:25:04;;;;;;;6.72;3.60;;;;;;;24.85;46.53;98996.59;5073344;28;20056;-84
2023/10/28 09:27:29;;;;;;;8.57;3.45;;;;;;;24.74;46.45;98997.53;5065598;28;20734;-83
2023/10/28 09:30:03;;;;;;;8.50;3.42;;;;;;;24.93;46.83;98971.69;5066602;28;20024;-81
2023/10/28 09:32:31;;;;;;;5.72;3.00;;;;;;;25.16;45.70;98992.16;5082062;28;20045;-82
2023/10/28 09:34:57;;;;;;;5.95;3.13;;;;;;;25.32;44.94;98977.34;5069994;28;20539;-81
2023/10/28 09:37:23;;;;;;;7.78;2.90;;;;;;;25.43;44.67;98979.94;5069402;28;20108;-81
2023/10/28 09:39:50;;;;;;;21.70;5.45;;;;;;;25.45;45.25;98991.44;5070635;28;20040;-82
2023/10/28 09:42:16;;;;;;;10.73;5.07;;;;;;;25.52;44.80;98979.13;5069160;28;20056;-82
2023/10/28 09:44:44;;;;;;;3.97;2.75;;;;;;;25.65;44.00;98980.75;5074800;28;20142;-81
2023/10/28 09:47:16;;;;;;;8.50;2.65;;;;;;;25.60;44.13;98981.16;5069891;28;20032;-81
2023/10/28 09:49:44;;;;;;;6.43;2.75;;;;;;;25.70;43.70;98971.25;5068665;28;20444;-81
2023/10/28 09:52:14;;;;;;;4.18;2.33;;;;;;;25.99;43.72;98986.69;5078134;28;20028;-81
2023/10/28 09:54:42;;;;;;;16.80;2.97;;;;;;;26.04;43.64;98965.53;5069899;28;20150;-82
2023/10/28 09:57:10;;;;;;;7.85;2.70;;;;;;;26.21;42.80;98973.94;5070218;28;20098;-82
2023/10/28 09:59:40;;;;;;;10.30;3.42;;;;;;;26.20;42.96;98994.69;5077872;28;20032;-82
2023/10/28 10:02:14;;;;;;;5.60;3.15;;;;;;;26.34;43.14;98976.38;5070505;28;20041;-83
2023/10/28 10:04:59;;;;;;;2.90;1.70;;;;;;;26.51;41.86;98988.31;5077067;28;20074;-79
2023/10/28 10:07:25;;;;;;;8.20;2.75;;;;;;;26.51;41.71;98978.38;5067275;28;20419;-80
2023/10/28 10:09:53;;;;;;;5.05;2.97;;;;;;;26.60;40.99;98972.09;5067835;28;20047;-81
2023/10/28 10:12:28;;;;;;;8.60;3.53;;;;;;;26.58;40.76;98965.97;5068290;28;20461;-79
2023/10/28 10:14:55;;;;;;;3.67;2.38;;;;;;;26.69;41.45;98977.66;5070030;28;20047;-80
2023/10/28 10:17:34;;;;;;;8.10;2.10;;;;;;;26.85;41.07;98977.06;5068629;28;20108;-79
2023/10/28 10:20:04;;;;;;;3.88;2.15;;;;;;;26.83;41.00;98954.72;5069356;28;20031;-80
2023/10/28 10:22:30;;;;;;;4.30;1.98;;;;;;;26.73;40.21;98966.41;5068818;28;20044;-82
2023/10/28 10:24:56;;;;;;;3.35;1.77;;;;;;;26.51;40.88;98950.44;5069781;28;20032;-81
2023/10/28 10:27:35;;;;;;;4.30;2.13;;;;;;;26.59;40.95;98948.75;5069370;28;20413;-81
2023/10/28 10:30:09;;;;;;;8.95;2.42;;;;;;;26.45;41.01;98928.41;5069420;28;20478;-81
2023/10/28 10:32:45;;;;;;;4.15;1.92;;;;;;;26.48;41.04;98921.88;5071587;28;20032;-81
2023/10/28 10:35:26;;;;;;;3.53;1.75;;;;;;;26.51;40.34;98928.81;5070713;28;20564;-81
2023/10/28 10:38:09;;;;;;;5.93;2.00;;;;;;;26.80;40.21;98947.75;5066440;28;20032;-81
2023/10/28 10:40:41;;;;;;;5.22;2.28;;;;;;;26.93;40.66;98952.88;5068808;28;20071;-81
2023/10/28 10:43:10;;;;;;;6.30;2.17;;;;;;;26.66;40.84;98883.28;5069960;28;20028;-81
2023/10/28 10:45:36;;;;;;;8.55;1.83;;;;;;;26.73;40.80;98933.13;5065256;28;20038;-81
2023/10/28 10:48:09;;;;;;;9.38;1.90;;;;;;;26.93;40.60;98944.75;5074504;28;20036;-81
2023/10/28 10:50:35;;;;;;;5.82;1.92;;;;;;;27.03;40.29;98920.34;5069871;28;20036;-81
2023/10/28 10:53:03;;;;;;;6.57;2.13;;;;;;;27.05;39.91;98930.06;5069019;28;20103;-81
2023/10/28 10:55:29;;;;;;;3.15;1.83;;;;;;;26.94;39.00;98928.38;5077252;28;20132;-79
2023/10/28 10:57:56;;;;;;;4.75;1.73;;;;;;;26.92;39.83;98918.69;5070863;28;20048;-80
2023/10/28 11:00:22;;;;;;;6.05;1.95;;;;;;;26.94;39.50;98898.59;5068516;28;20028;-81
2023/10/28 11:02:49;;;;;;;3.25;1.58;;;;;;;27.29;38.52;98915.97;5069099;28;20026;-80
2023/10/28 11:05:16;;;;;;;7.20;1.98;;;;;;;27.40;38.25;98922.25;5077284;28;20059;-83
2023/10/28 11:07:42;;;;;;;2.38;1.45;;;;;;;27.45;38.32;98919.94;5071695;28;20470;-83
2023/10/28 11:10:08;;;;;;;8.80;2.78;;;;;;;27.32;38.85;98917.56;5071429;28;20394;-82
2023/10/28 11:12:35;;;;;;;7.97;1.95;;;;;;;27.27;39.45;98890.06;5068430;28;20028;-82
2023/10/28 11:15:00;;;;;;;8.50;2.63;;;;;;;27.36;39.44;98891.03;5069802;28;20035;-83
2023/10/28 11:17:26;;;;;;;4.63;1.58;;;;;;;27.17;39.45;98884.69;5085897;28;20036;-83
2023/10/28 11:19:52;;;;;;;5.63;1.60;;;;;;;27.18;39.10;98861.19;5070828;28;20107;-83
2023/10/28 11:22:18;;;;;;;5.43;1.77;;;;;;;27.44;38.67;98902.00;5070288;28;20599;-83
2023/10/28 11:24:44;;;;;;;3.15;1.38;;;;;;;27.49;38.45;98891.56;5070507;28;20028;-83
2023/10/28 11:27:18;;;;;;;3.10;1.40;;;;;;;27.72;39.01;98910.13;5081754;28;20093;-85